sensor_id;sensor_type;location;lat;lon;timestamp;temperature;humidity
18365;DHT22;9309;52.126;11.616;2023-05-16T00:01:00;12.30;70.50
18365;DHT22;9309;52.126;11.616;2023-05-16T00:03:27;12.30;70.30
18365;DHT22;9309;52.126;11.616;2023-05-16T00:05:55;12.10;70.80
18365;DHT22;9309;52.126;11.616;2023-05-16T00:08:22;12.10;71.10
18365;DHT22;9309;52.126;11.616;2023-05-16T00:10:50;12.00;70.80
18365;DHT22;9309;52.126;11.616;2023-05-16T00:13:17;12.00;70.80
18365;DHT22;9309;52.126;11.616;2023-05-16T00:15:49;12.00;71.00
18365;DHT22;9309;52.126;11.616;2023-05-16T00:18:16;12.00;71.30
18365;DHT22;9309;52.126;11.616;2023-05-16T00:20:43;11.90;71.80
18365;DHT22;9309;52.126;11.616;2023-05-16T00:23:10;11.80;72.30
18365;DHT22;9309;52.126;11.616;2023-05-16T00:25:37;11.70;73.00
18365;DHT22;9309;52.126;11.616;2023-05-16T00:28:06;11.60;73.20
18365;DHT22;9309;52.126;11.616;2023-05-16T00:30:33;11.40;73.20
18365;DHT22;9309;52.126;11.616;2023-05-16T00:33:00;11.20;73.60
18365;DHT22;9309;52.126;11.616;2023-05-16T00:35:28;11.00;74.30
18365;DHT22;9309;52.126;11.616;2023-05-16T00:37:56;10.80;74.80
18365;DHT22;9309;52.126;11.616;2023-05-16T00:40:22;10.80;75.40
18365;DHT22;9309;52.126;11.616;2023-05-16T00:42:49;10.80;75.30
18365;DHT22;9309;52.126;11.616;2023-05-16T00:45:17;10.80;75.40
18365;DHT22;9309;52.126;11.616;2023-05-16T00:47:44;10.70;76.30
18365;DHT22;9309;52.126;11.616;2023-05-16T00:50:11;10.60;76.70
18365;DHT22;9309;52.126;11.616;2023-05-16T00:52:38;10.60;76.80
18365;DHT22;9309;52.126;11.616;2023-05-16T00:55:06;10.50;77.00
18365;DHT22;9309;52.126;11.616;2023-05-16T00:57:35;10.60;76.60
18365;DHT22;9309;52.126;11.616;2023-05-16T01:00:03;10.60;76.60
18365;DHT22;9309;52.126;11.616;2023-05-16T01:02:33;10.60;76.40
18365;DHT22;9309;52.126;11.616;2023-05-16T01:05:01;10.70;76.20
18365;DHT22;9309;52.126;11.616;2023-05-16T01:07:28;10.80;76.20
18365;DHT22;9309;52.126;11.616;2023-05-16T01:09:55;10.60;76.80
18365;DHT22;9309;52.126;11.616;2023-05-16T01:12:27;10.50;76.80
18365;DHT22;9309;52.126;11.616;2023-05-16T01:15:01;10.40;77.30
18365;DHT22;9309;52.126;11.616;2023-05-16T01:17:37;10.30;78.00
18365;DHT22;9309;52.126;11.616;2023-05-16T01:20:12;10.30;77.20
18365;DHT22;9309;52.126;11.616;2023-05-16T01:22:51;10.30;77.00
18365;DHT22;9309;52.126;11.616;2023-05-16T01:25:30;10.20;76.70
18365;DHT22;9309;52.126;11.616;2023-05-16T01:28:01;10.10;76.90
18365;DHT22;9309;52.126;11.616;2023-05-16T01:30:32;10.00;77.20
18365;DHT22;9309;52.126;11.616;2023-05-16T01:33:00;10.00;77.00
18365;DHT22;9309;52.126;11.616;2023-05-16T01:35:27;10.00;76.40
18365;DHT22;9309;52.126;11.616;2023-05-16T01:38:03;9.90;76.50
18365;DHT22;9309;52.126;11.616;2023-05-16T01:40:37;9.80;76.50
18365;DHT22;9309;52.126;11.616;2023-05-16T01:43:13;9.80;76.40
18365;DHT22;9309;52.126;11.616;2023-05-16T01:45:46;9.90;76.40
18365;DHT22;9309;52.126;11.616;2023-05-16T01:48:19;9.80;76.90
18365;DHT22;9309;52.126;11.616;2023-05-16T01:50:56;9.80;76.70
18365;DHT22;9309;52.126;11.616;2023-05-16T01:53:28;9.90;76.50
18365;DHT22;9309;52.126;11.616;2023-05-16T01:55:56;9.80;76.60
18365;DHT22;9309;52.126;11.616;2023-05-16T01:58:29;9.90;76.70
18365;DHT22;9309;52.126;11.616;2023-05-16T02:01:00;9.90;76.20
18365;DHT22;9309;52.126;11.616;2023-05-16T02:03:26;10.00;75.70
18365;DHT22;9309;52.126;11.616;2023-05-16T02:05:53;10.00;75.30
18365;DHT22;9309;52.126;11.616;2023-05-16T02:08:20;10.00;76.20
18365;DHT22;9309;52.126;11.616;2023-05-16T02:10:49;10.00;75.20
18365;DHT22;9309;52.126;11.616;2023-05-16T02:13:16;10.10;75.00
18365;DHT22;9309;52.126;11.616;2023-05-16T02:15:44;10.00;75.10
18365;DHT22;9309;52.126;11.616;2023-05-16T02:18:11;10.10;75.40
18365;DHT22;9309;52.126;11.616;2023-05-16T02:20:38;10.10;75.00
18365;DHT22;9309;52.126;11.616;2023-05-16T02:23:05;10.20;74.50
18365;DHT22;9309;52.126;11.616;2023-05-16T02:25:31;10.10;74.80
18365;DHT22;9309;52.126;11.616;2023-05-16T02:27:58;10.10;74.90
18365;DHT22;9309;52.126;11.616;2023-05-16T02:30:25;10.00;75.30
18365;DHT22;9309;52.126;11.616;2023-05-16T02:32:53;10.00;75.50
18365;DHT22;9309;52.126;11.616;2023-05-16T02:35:20;10.00;75.20
18365;DHT22;9309;52.126;11.616;2023-05-16T02:37:47;9.90;75.50
18365;DHT22;9309;52.126;11.616;2023-05-16T02:40:13;10.10;74.80
18365;DHT22;9309;52.126;11.616;2023-05-16T02:42:40;10.00;74.50
18365;DHT22;9309;52.126;11.616;2023-05-16T02:45:08;10.00;74.70
18365;DHT22;9309;52.126;11.616;2023-05-16T02:47:35;10.00;74.60
18365;DHT22;9309;52.126;11.616;2023-05-16T02:50:04;9.90;74.80
18365;DHT22;9309;52.126;11.616;2023-05-16T02:52:33;10.00;74.50
18365;DHT22;9309;52.126;11.616;2023-05-16T02:55:00;10.00;74.10
18365;DHT22;9309;52.126;11.616;2023-05-16T02:57:27;10.10;73.50
18365;DHT22;9309;52.126;11.616;2023-05-16T02:59:53;10.10;74.00
18365;DHT22;9309;52.126;11.616;2023-05-16T03:02:21;10.10;73.60
18365;DHT22;9309;52.126;11.616;2023-05-16T03:04:47;10.20;73.40
18365;DHT22;9309;52.126;11.616;2023-05-16T03:07:16;10.20;73.40
18365;DHT22;9309;52.126;11.616;2023-05-16T03:09:43;10.10;73.70
18365;DHT22;9309;52.126;11.616;2023-05-16T03:12:10;10.10;73.60
18365;DHT22;9309;52.126;11.616;2023-05-16T03:14:37;10.10;73.90
18365;DHT22;9309;52.126;11.616;2023-05-16T03:17:04;10.10;74.10
18365;DHT22;9309;52.126;11.616;2023-05-16T03:19:30;10.10;74.00
18365;DHT22;9309;52.126;11.616;2023-05-16T03:21:59;10.20;73.90
18365;DHT22;9309;52.126;11.616;2023-05-16T03:24:27;10.20;73.70
18365;DHT22;9309;52.126;11.616;2023-05-16T03:26:53;10.20;73.30
18365;DHT22;9309;52.126;11.616;2023-05-16T03:29:20;10.20;73.40
18365;DHT22;9309;52.126;11.616;2023-05-16T03:31:47;10.30;73.40
18365;DHT22;9309;52.126;11.616;2023-05-16T03:34:13;10.20;73.20
18365;DHT22;9309;52.126;11.616;2023-05-16T03:36:40;10.20;73.30
18365;DHT22;9309;52.126;11.616;2023-05-16T03:39:07;10.30;73.00
18365;DHT22;9309;52.126;11.616;2023-05-16T03:41:35;10.40;72.80
18365;DHT22;9309;52.126;11.616;2023-05-16T03:44:02;10.40;73.00
18365;DHT22;9309;52.126;11.616;2023-05-16T03:46:29;10.40;72.70
18365;DHT22;9309;52.126;11.616;2023-05-16T03:48:56;10.50;72.20
18365;DHT22;9309;52.126;11.616;2023-05-16T03:51:23;10.50;72.30
18365;DHT22;9309;52.126;11.616;2023-05-16T03:53:50;10.60;72.40
18365;DHT22;9309;52.126;11.616;2023-05-16T03:56:17;10.70;71.70
18365;DHT22;9309;52.126;11.616;2023-05-16T03:58:45;10.70;71.60
18365;DHT22;9309;52.126;11.616;2023-05-16T04:01:11;10.60;72.00
18365;DHT22;9309;52.126;11.616;2023-05-16T04:03:38;10.60;71.40
18365;DHT22;9309;52.126;11.616;2023-05-16T04:06:06;10.50;71.80
18365;DHT22;9309;52.126;11.616;2023-05-16T04:08:33;10.50;71.80
18365;DHT22;9309;52.126;11.616;2023-05-16T04:11:00;10.50;72.00
18365;DHT22;9309;52.126;11.616;2023-05-16T04:13:27;10.50;71.90
18365;DHT22;9309;52.126;11.616;2023-05-16T04:15:55;10.60;72.10
18365;DHT22;9309;52.126;11.616;2023-05-16T04:18:21;10.50;72.40
18365;DHT22;9309;52.126;11.616;2023-05-16T04:20:48;10.60;71.90
18365;DHT22;9309;52.126;11.616;2023-05-16T04:23:15;10.60;72.30
18365;DHT22;9309;52.126;11.616;2023-05-16T04:25:42;10.60;72.70
18365;DHT22;9309;52.126;11.616;2023-05-16T04:31:57;10.70;73.20
18365;DHT22;9309;52.126;11.616;2023-05-16T04:34:24;10.50;74.10
18365;DHT22;9309;52.126;11.616;2023-05-16T04:40:40;10.50;74.70
18365;DHT22;9309;52.126;11.616;2023-05-16T04:43:07;10.50;75.10
18365;DHT22;9309;52.126;11.616;2023-05-16T04:45:34;10.50;75.20
18365;DHT22;9309;52.126;11.616;2023-05-16T04:48:02;10.60;74.80
18365;DHT22;9309;52.126;11.616;2023-05-16T04:50:29;10.70;74.40
18365;DHT22;9309;52.126;11.616;2023-05-16T04:52:56;10.70;74.20
18365;DHT22;9309;52.126;11.616;2023-05-16T04:55:23;10.80;73.90
18365;DHT22;9309;52.126;11.616;2023-05-16T04:57:49;10.80;74.10
18365;DHT22;9309;52.126;11.616;2023-05-16T05:00:16;10.70;74.50
18365;DHT22;9309;52.126;11.616;2023-05-16T05:02:43;10.70;75.10
18365;DHT22;9309;52.126;11.616;2023-05-16T05:05:12;10.80;74.40
18365;DHT22;9309;52.126;11.616;2023-05-16T05:07:39;10.70;74.30
18365;DHT22;9309;52.126;11.616;2023-05-16T05:10:06;10.70;74.70
18365;DHT22;9309;52.126;11.616;2023-05-16T05:12:34;10.80;74.60
18365;DHT22;9309;52.126;11.616;2023-05-16T05:15:01;10.70;74.20
18365;DHT22;9309;52.126;11.616;2023-05-16T05:17:28;10.70;74.50
18365;DHT22;9309;52.126;11.616;2023-05-16T05:19:55;10.70;74.40
18365;DHT22;9309;52.126;11.616;2023-05-16T05:22:23;10.70;74.90
18365;DHT22;9309;52.126;11.616;2023-05-16T05:24:49;10.70;75.00
18365;DHT22;9309;52.126;11.616;2023-05-16T05:27:16;10.80;74.20
18365;DHT22;9309;52.126;11.616;2023-05-16T05:29:42;10.70;74.90
18365;DHT22;9309;52.126;11.616;2023-05-16T05:32:09;10.70;74.60
18365;DHT22;9309;52.126;11.616;2023-05-16T05:34:36;10.80;74.40
18365;DHT22;9309;52.126;11.616;2023-05-16T05:37:03;10.80;73.90
18365;DHT22;9309;52.126;11.616;2023-05-16T05:39:31;10.90;74.00
18365;DHT22;9309;52.126;11.616;2023-05-16T05:41:58;11.10;73.20
18365;DHT22;9309;52.126;11.616;2023-05-16T05:44:25;11.20;72.90
18365;DHT22;9309;52.126;11.616;2023-05-16T05:46:55;11.10;73.20
18365;DHT22;9309;52.126;11.616;2023-05-16T05:49:25;11.20;73.30
18365;DHT22;9309;52.126;11.616;2023-05-16T05:51:51;11.40;72.50
18365;DHT22;9309;52.126;11.616;2023-05-16T05:54:19;11.40;72.10
18365;DHT22;9309;52.126;11.616;2023-05-16T05:56:47;11.40;72.00
18365;DHT22;9309;52.126;11.616;2023-05-16T05:59:14;11.30;73.10
18365;DHT22;9309;52.126;11.616;2023-05-16T06:01:41;11.40;72.30
18365;DHT22;9309;52.126;11.616;2023-05-16T06:04:08;11.50;71.80
18365;DHT22;9309;52.126;11.616;2023-05-16T06:06:35;11.50;71.70
18365;DHT22;9309;52.126;11.616;2023-05-16T06:09:02;11.70;71.50
18365;DHT22;9309;52.126;11.616;2023-05-16T06:11:29;11.70;70.90
18365;DHT22;9309;52.126;11.616;2023-05-16T06:13:57;11.90;70.30
18365;DHT22;9309;52.126;11.616;2023-05-16T06:16:24;12.00;69.70
18365;DHT22;9309;52.126;11.616;2023-05-16T06:18:50;11.90;69.70
18365;DHT22;9309;52.126;11.616;2023-05-16T06:21:17;11.70;70.90
18365;DHT22;9309;52.126;11.616;2023-05-16T06:23:44;11.80;70.20
18365;DHT22;9309;52.126;11.616;2023-05-16T06:26:10;12.00;69.80
18365;DHT22;9309;52.126;11.616;2023-05-16T06:28:37;11.80;69.70
18365;DHT22;9309;52.126;11.616;2023-05-16T06:31:05;11.60;70.40
18365;DHT22;9309;52.126;11.616;2023-05-16T06:33:32;11.60;71.20
18365;DHT22;9309;52.126;11.616;2023-05-16T06:35:59;11.70;71.00
18365;DHT22;9309;52.126;11.616;2023-05-16T06:38:25;11.70;71.00
18365;DHT22;9309;52.126;11.616;2023-05-16T06:40:52;11.60;71.50
18365;DHT22;9309;52.126;11.616;2023-05-16T06:43:19;11.60;71.20
18365;DHT22;9309;52.126;11.616;2023-05-16T06:45:46;11.60;71.50
18365;DHT22;9309;52.126;11.616;2023-05-16T06:48:14;11.60;71.80
18365;DHT22;9309;52.126;11.616;2023-05-16T06:50:40;11.60;71.50
18365;DHT22;9309;52.126;11.616;2023-05-16T06:53:07;11.70;71.40
18365;DHT22;9309;52.126;11.616;2023-05-16T06:55:36;11.70;71.10
18365;DHT22;9309;52.126;11.616;2023-05-16T06:58:03;11.60;71.00
18365;DHT22;9309;52.126;11.616;2023-05-16T07:00:29;11.80;70.60
18365;DHT22;9309;52.126;11.616;2023-05-16T07:02:56;11.70;70.70
18365;DHT22;9309;52.126;11.616;2023-05-16T07:05:24;11.80;70.70
18365;DHT22;9309;52.126;11.616;2023-05-16T07:07:51;11.90;69.90
18365;DHT22;9309;52.126;11.616;2023-05-16T07:10:17;11.80;70.50
18365;DHT22;9309;52.126;11.616;2023-05-16T07:12:45;11.70;69.90
18365;DHT22;9309;52.126;11.616;2023-05-16T07:15:12;11.60;69.70
18365;DHT22;9309;52.126;11.616;2023-05-16T07:17:39;11.60;69.10
18365;DHT22;9309;52.126;11.616;2023-05-16T07:20:06;11.60;68.60
18365;DHT22;9309;52.126;11.616;2023-05-16T07:22:39;11.60;68.30
18365;DHT22;9309;52.126;11.616;2023-05-16T07:25:06;11.60;68.60
18365;DHT22;9309;52.126;11.616;2023-05-16T07:27:37;11.70;68.30
18365;DHT22;9309;52.126;11.616;2023-05-16T07:30:06;11.90;67.40
18365;DHT22;9309;52.126;11.616;2023-05-16T07:32:33;12.10;66.70
18365;DHT22;9309;52.126;11.616;2023-05-16T07:35:00;12.20;66.60
18365;DHT22;9309;52.126;11.616;2023-05-16T07:37:27;12.10;66.60
18365;DHT22;9309;52.126;11.616;2023-05-16T07:39:55;12.10;66.00
18365;DHT22;9309;52.126;11.616;2023-05-16T07:42:21;12.10;66.40
18365;DHT22;9309;52.126;11.616;2023-05-16T07:44:48;12.20;65.40
18365;DHT22;9309;52.126;11.616;2023-05-16T07:47:15;12.50;64.00
18365;DHT22;9309;52.126;11.616;2023-05-16T07:49:42;12.50;64.20
18365;DHT22;9309;52.126;11.616;2023-05-16T07:52:08;12.60;63.00
18365;DHT22;9309;52.126;11.616;2023-05-16T07:54:36;12.60;63.70
18365;DHT22;9309;52.126;11.616;2023-05-16T07:57:05;12.70;62.70
18365;DHT22;9309;52.126;11.616;2023-05-16T07:59:32;12.40;63.10
18365;DHT22;9309;52.126;11.616;2023-05-16T08:01:58;12.10;64.80
18365;DHT22;9309;52.126;11.616;2023-05-16T08:04:25;12.10;65.00
18365;DHT22;9309;52.126;11.616;2023-05-16T08:06:53;12.00;65.40
18365;DHT22;9309;52.126;11.616;2023-05-16T08:09:19;11.80;65.60
18365;DHT22;9309;52.126;11.616;2023-05-16T08:11:46;11.80;65.40
18365;DHT22;9309;52.126;11.616;2023-05-16T08:14:14;11.80;64.10
18365;DHT22;9309;52.126;11.616;2023-05-16T08:16:41;11.90;62.80
18365;DHT22;9309;52.126;11.616;2023-05-16T08:19:07;12.10;62.10
18365;DHT22;9309;52.126;11.616;2023-05-16T08:21:34;12.10;61.70
18365;DHT22;9309;52.126;11.616;2023-05-16T08:24:01;12.70;60.00
18365;DHT22;9309;52.126;11.616;2023-05-16T08:26:28;12.50;59.00
18365;DHT22;9309;52.126;11.616;2023-05-16T08:28:55;12.40;59.30
18365;DHT22;9309;52.126;11.616;2023-05-16T08:31:23;12.60;59.10
18365;DHT22;9309;52.126;11.616;2023-05-16T08:33:49;12.70;58.90
18365;DHT22;9309;52.126;11.616;2023-05-16T08:36:16;12.70;58.30
18365;DHT22;9309;52.126;11.616;2023-05-16T08:38:44;12.40;58.90
18365;DHT22;9309;52.126;11.616;2023-05-16T08:41:11;12.50;58.50
18365;DHT22;9309;52.126;11.616;2023-05-16T08:43:38;12.70;56.60
18365;DHT22;9309;52.126;11.616;2023-05-16T08:46:06;12.90;55.60
18365;DHT22;9309;52.126;11.616;2023-05-16T08:48:35;13.20;54.60
18365;DHT22;9309;52.126;11.616;2023-05-16T08:51:05;13.30;54.50
18365;DHT22;9309;52.126;11.616;2023-05-16T08:53:39;13.20;54.50
18365;DHT22;9309;52.126;11.616;2023-05-16T08:56:07;13.00;54.40
18365;DHT22;9309;52.126;11.616;2023-05-16T08:58:34;13.00;55.20
18365;DHT22;9309;52.126;11.616;2023-05-16T09:01:03;13.00;55.10
18365;DHT22;9309;52.126;11.616;2023-05-16T09:03:35;13.00;54.50
18365;DHT22;9309;52.126;11.616;2023-05-16T09:06:03;13.20;54.70
18365;DHT22;9309;52.126;11.616;2023-05-16T09:08:30;13.10;54.30
18365;DHT22;9309;52.126;11.616;2023-05-16T09:10:57;12.90;54.10
18365;DHT22;9309;52.126;11.616;2023-05-16T09:13:24;12.80;54.00
18365;DHT22;9309;52.126;11.616;2023-05-16T09:16:09;12.90;54.00
18365;DHT22;9309;52.126;11.616;2023-05-16T09:18:38;13.00;53.10
18365;DHT22;9309;52.126;11.616;2023-05-16T09:21:05;12.90;52.40
18365;DHT22;9309;52.126;11.616;2023-05-16T09:23:33;13.40;51.80
18365;DHT22;9309;52.126;11.616;2023-05-16T09:26:00;13.80;50.50
18365;DHT22;9309;52.126;11.616;2023-05-16T09:28:27;14.20;49.50
18365;DHT22;9309;52.126;11.616;2023-05-16T09:30:53;14.50;47.70
18365;DHT22;9309;52.126;11.616;2023-05-16T09:33:23;14.60;46.20
18365;DHT22;9309;52.126;11.616;2023-05-16T09:35:58;14.80;45.90
18365;DHT22;9309;52.126;11.616;2023-05-16T09:38:26;15.00;46.00
18365;DHT22;9309;52.126;11.616;2023-05-16T09:40:54;15.00;45.20
18365;DHT22;9309;52.126;11.616;2023-05-16T09:43:26;14.90;46.70
18365;DHT22;9309;52.126;11.616;2023-05-16T09:45:52;14.80;47.10
18365;DHT22;9309;52.126;11.616;2023-05-16T09:48:20;15.20;47.00
18365;DHT22;9309;52.126;11.616;2023-05-16T09:50:49;15.20;47.20
18365;DHT22;9309;52.126;11.616;2023-05-16T09:53:24;15.00;47.00
18365;DHT22;9309;52.126;11.616;2023-05-16T09:55:58;14.70;47.20
18365;DHT22;9309;52.126;11.616;2023-05-16T09:58:28;14.70;47.40
18365;DHT22;9309;52.126;11.616;2023-05-16T10:00:55;14.80;45.90
18365;DHT22;9309;52.126;11.616;2023-05-16T10:03:22;14.80;45.90
18365;DHT22;9309;52.126;11.616;2023-05-16T10:05:50;14.90;44.90
18365;DHT22;9309;52.126;11.616;2023-05-16T10:08:19;15.10;44.40
18365;DHT22;9309;52.126;11.616;2023-05-16T10:10:49;15.00;44.60
18365;DHT22;9309;52.126;11.616;2023-05-16T10:13:18;14.90;45.40
18365;DHT22;9309;52.126;11.616;2023-05-16T10:15:47;15.30;45.50
18365;DHT22;9309;52.126;11.616;2023-05-16T10:18:16;15.70;44.50
18365;DHT22;9309;52.126;11.616;2023-05-16T10:20:45;15.30;45.90
18365;DHT22;9309;52.126;11.616;2023-05-16T10:23:16;15.20;45.60
18365;DHT22;9309;52.126;11.616;2023-05-16T10:25:46;15.60;45.10
18365;DHT22;9309;52.126;11.616;2023-05-16T10:28:13;15.80;43.50
18365;DHT22;9309;52.126;11.616;2023-05-16T10:30:42;15.80;42.70
18365;DHT22;9309;52.126;11.616;2023-05-16T10:33:10;15.80;42.10
18365;DHT22;9309;52.126;11.616;2023-05-16T10:35:37;15.80;42.00
18365;DHT22;9309;52.126;11.616;2023-05-16T10:38:06;15.60;41.90
18365;DHT22;9309;52.126;11.616;2023-05-16T10:40:33;15.50;42.30
18365;DHT22;9309;52.126;11.616;2023-05-16T10:43:04;15.20;43.50
18365;DHT22;9309;52.126;11.616;2023-05-16T10:45:32;15.20;44.10
18365;DHT22;9309;52.126;11.616;2023-05-16T10:47:59;15.60;43.20
18365;DHT22;9309;52.126;11.616;2023-05-16T10:50:36;16.90;41.50
18365;DHT22;9309;52.126;11.616;2023-05-16T10:53:18;18.40;39.10
18365;DHT22;9309;52.126;11.616;2023-05-16T10:55:49;20.20;35.60
18365;DHT22;9309;52.126;11.616;2023-05-16T10:58:26;21.40;33.60
18365;DHT22;9309;52.126;11.616;2023-05-16T11:01:18;19.70;35.50
18365;DHT22;9309;52.126;11.616;2023-05-16T11:04:04;18.10;38.80
18365;DHT22;9309;52.126;11.616;2023-05-16T11:06:31;18.70;38.50
18365;DHT22;9309;52.126;11.616;2023-05-16T11:09:20;20.70;35.50
18365;DHT22;9309;52.126;11.616;2023-05-16T11:11:53;20.90;34.20
18365;DHT22;9309;52.126;11.616;2023-05-16T11:14:23;19.80;34.70
18365;DHT22;9309;52.126;11.616;2023-05-16T11:16:59;18.80;35.50
18365;DHT22;9309;52.126;11.616;2023-05-16T11:19:32;17.60;37.10
18365;DHT22;9309;52.126;11.616;2023-05-16T11:25:05;17.60;37.20
18365;DHT22;9309;52.126;11.616;2023-05-16T11:27:34;17.50;38.40
18365;DHT22;9309;52.126;11.616;2023-05-16T11:30:11;17.60;37.10
18365;DHT22;9309;52.126;11.616;2023-05-16T11:32:41;18.40;35.90
18365;DHT22;9309;52.126;11.616;2023-05-16T11:35:09;18.80;35.00
18365;DHT22;9309;52.126;11.616;2023-05-16T11:37:36;19.00;34.60
18365;DHT22;9309;52.126;11.616;2023-05-16T11:40:05;18.70;34.60
18365;DHT22;9309;52.126;11.616;2023-05-16T11:42:34;19.80;33.80
18365;DHT22;9309;52.126;11.616;2023-05-16T11:45:07;21.60;30.90
18365;DHT22;9309;52.126;11.616;2023-05-16T11:47:36;22.60;29.60
18365;DHT22;9309;52.126;11.616;2023-05-16T11:50:05;23.00;29.30
18365;DHT22;9309;52.126;11.616;2023-05-16T11:52:32;22.80;28.20
18365;DHT22;9309;52.126;11.616;2023-05-16T11:54:58;21.90;28.80
18365;DHT22;9309;52.126;11.616;2023-05-16T11:57:26;20.50;30.30
18365;DHT22;9309;52.126;11.616;2023-05-16T11:59:52;19.50;31.60
18365;DHT22;9309;52.126;11.616;2023-05-16T12:02:21;19.00;32.80
18365;DHT22;9309;52.126;11.616;2023-05-16T12:04:48;18.70;32.50
18365;DHT22;9309;52.126;11.616;2023-05-16T12:07:16;20.30;30.60
18365;DHT22;9309;52.126;11.616;2023-05-16T12:09:51;22.40;28.10
18365;DHT22;9309;52.126;11.616;2023-05-16T12:12:19;23.70;26.80
18365;DHT22;9309;52.126;11.616;2023-05-16T12:14:46;24.10;26.00
18365;DHT22;9309;52.126;11.616;2023-05-16T12:17:13;23.10;27.20
18365;DHT22;9309;52.126;11.616;2023-05-16T12:19:41;21.50;27.70
18365;DHT22;9309;52.126;11.616;2023-05-16T12:22:15;21.10;29.00
18365;DHT22;9309;52.126;11.616;2023-05-16T12:24:41;21.90;28.70
18365;DHT22;9309;52.126;11.616;2023-05-16T12:27:08;21.60;27.60
18365;DHT22;9309;52.126;11.616;2023-05-16T12:29:35;20.20;28.20
18365;DHT22;9309;52.126;11.616;2023-05-16T12:32:02;19.40;29.40
18365;DHT22;9309;52.126;11.616;2023-05-16T12:34:29;19.80;28.80
18365;DHT22;9309;52.126;11.616;2023-05-16T12:36:58;21.10;28.30
18365;DHT22;9309;52.126;11.616;2023-05-16T12:39:26;21.10;28.20
18365;DHT22;9309;52.126;11.616;2023-05-16T12:41:53;20.50;28.80
18365;DHT22;9309;52.126;11.616;2023-05-16T12:44:20;20.60;28.90
18365;DHT22;9309;52.126;11.616;2023-05-16T12:46:49;20.40;29.20
18365;DHT22;9309;52.126;11.616;2023-05-16T12:49:19;20.20;28.10
18365;DHT22;9309;52.126;11.616;2023-05-16T12:51:50;20.90;27.20
18365;DHT22;9309;52.126;11.616;2023-05-16T12:54:18;21.30;27.30
18365;DHT22;9309;52.126;11.616;2023-05-16T12:56:47;22.50;26.10
18365;DHT22;9309;52.126;11.616;2023-05-16T12:59:14;23.10;24.70
18365;DHT22;9309;52.126;11.616;2023-05-16T13:01:41;24.00;24.10
18365;DHT22;9309;52.126;11.616;2023-05-16T13:04:08;24.30;23.90
18365;DHT22;9309;52.126;11.616;2023-05-16T13:06:39;25.00;23.70
18365;DHT22;9309;52.126;11.616;2023-05-16T13:09:06;25.40;22.70
18365;DHT22;9309;52.126;11.616;2023-05-16T13:11:36;25.00;23.00
18365;DHT22;9309;52.126;11.616;2023-05-16T13:14:02;24.30;23.80
18365;DHT22;9309;52.126;11.616;2023-05-16T13:16:29;22.50;25.60
18365;DHT22;9309;52.126;11.616;2023-05-16T13:18:56;23.40;25.40
18365;DHT22;9309;52.126;11.616;2023-05-16T13:21:23;24.60;24.60
18365;DHT22;9309;52.126;11.616;2023-05-16T13:23:52;24.40;24.20
18365;DHT22;9309;52.126;11.616;2023-05-16T13:26:19;24.20;24.60
18365;DHT22;9309;52.126;11.616;2023-05-16T13:28:47;23.60;24.80
18365;DHT22;9309;52.126;11.616;2023-05-16T13:31:16;23.20;25.80
18365;DHT22;9309;52.126;11.616;2023-05-16T13:33:42;23.60;25.80
18365;DHT22;9309;52.126;11.616;2023-05-16T13:36:09;24.00;24.40
18365;DHT22;9309;52.126;11.616;2023-05-16T13:38:36;24.00;23.00
18365;DHT22;9309;52.126;11.616;2023-05-16T13:41:02;23.90;23.10
18365;DHT22;9309;52.126;11.616;2023-05-16T13:43:29;24.80;22.10
18365;DHT22;9309;52.126;11.616;2023-05-16T13:45:57;25.00;22.30
18365;DHT22;9309;52.126;11.616;2023-05-16T13:48:24;24.80;22.80
18365;DHT22;9309;52.126;11.616;2023-05-16T13:50:50;24.40;23.40
18365;DHT22;9309;52.126;11.616;2023-05-16T13:53:17;24.00;24.20
18365;DHT22;9309;52.126;11.616;2023-05-16T13:55:44;22.20;26.30
18365;DHT22;9309;52.126;11.616;2023-05-16T13:58:11;20.70;28.60
18365;DHT22;9309;52.126;11.616;2023-05-16T14:00:38;20.00;29.20
18365;DHT22;9309;52.126;11.616;2023-05-16T14:03:06;20.50;27.80
18365;DHT22;9309;52.126;11.616;2023-05-16T14:05:32;21.70;25.40
18365;DHT22;9309;52.126;11.616;2023-05-16T14:07:59;23.50;24.60
18365;DHT22;9309;52.126;11.616;2023-05-16T14:10:26;23.30;24.90
18365;DHT22;9309;52.126;11.616;2023-05-16T14:12:53;23.30;25.30
18365;DHT22;9309;52.126;11.616;2023-05-16T14:15:20;23.10;25.60
18365;DHT22;9309;52.126;11.616;2023-05-16T14:17:47;21.30;27.70
18365;DHT22;9309;52.126;11.616;2023-05-16T14:20:15;19.40;30.20
18365;DHT22;9309;52.126;11.616;2023-05-16T14:22:41;18.50;31.80
18365;DHT22;9309;52.126;11.616;2023-05-16T14:25:08;17.50;32.70
18365;DHT22;9309;52.126;11.616;2023-05-16T14:27:35;17.20;33.30
18365;DHT22;9309;52.126;11.616;2023-05-16T14:30:03;16.90;33.50
18365;DHT22;9309;52.126;11.616;2023-05-16T14:32:29;16.50;31.80
18365;DHT22;9309;52.126;11.616;2023-05-16T14:34:56;16.50;32.20
18365;DHT22;9309;52.126;11.616;2023-05-16T14:37:24;16.80;31.70
18365;DHT22;9309;52.126;11.616;2023-05-16T14:39:51;16.90;30.50
18365;DHT22;9309;52.126;11.616;2023-05-16T14:42:19;16.90;31.10
18365;DHT22;9309;52.126;11.616;2023-05-16T14:44:46;16.90;31.70
18365;DHT22;9309;52.126;11.616;2023-05-16T14:47:13;16.80;31.00
18365;DHT22;9309;52.126;11.616;2023-05-16T14:49:39;16.80;31.20
18365;DHT22;9309;52.126;11.616;2023-05-16T14:52:06;16.80;31.00
18365;DHT22;9309;52.126;11.616;2023-05-16T14:54:34;16.80;31.10
18365;DHT22;9309;52.126;11.616;2023-05-16T14:57:01;16.50;30.80
18365;DHT22;9309;52.126;11.616;2023-05-16T14:59:29;16.70;31.60
18365;DHT22;9309;52.126;11.616;2023-05-16T15:01:56;17.00;30.80
18365;DHT22;9309;52.126;11.616;2023-05-16T15:04:22;17.20;31.20
18365;DHT22;9309;52.126;11.616;2023-05-16T15:06:49;17.40;31.40
18365;DHT22;9309;52.126;11.616;2023-05-16T15:09:16;17.40;31.90
18365;DHT22;9309;52.126;11.616;2023-05-16T15:11:44;17.40;32.30
18365;DHT22;9309;52.126;11.616;2023-05-16T15:14:11;17.00;31.90
18365;DHT22;9309;52.126;11.616;2023-05-16T15:16:38;16.70;33.30
18365;DHT22;9309;52.126;11.616;2023-05-16T15:19:05;16.40;33.70
18365;DHT22;9309;52.126;11.616;2023-05-16T15:21:31;16.10;34.30
18365;DHT22;9309;52.126;11.616;2023-05-16T15:23:58;16.00;35.40
18365;DHT22;9309;52.126;11.616;2023-05-16T15:26:25;15.90;35.60
18365;DHT22;9309;52.126;11.616;2023-05-16T15:28:53;16.00;36.30
18365;DHT22;9309;52.126;11.616;2023-05-16T15:31:20;16.20;36.40
18365;DHT22;9309;52.126;11.616;2023-05-16T15:33:47;16.10;36.50
18365;DHT22;9309;52.126;11.616;2023-05-16T15:36:14;16.20;36.40
18365;DHT22;9309;52.126;11.616;2023-05-16T15:38:41;16.30;36.40
18365;DHT22;9309;52.126;11.616;2023-05-16T15:41:10;16.40;35.80
18365;DHT22;9309;52.126;11.616;2023-05-16T15:43:38;16.30;35.50
18365;DHT22;9309;52.126;11.616;2023-05-16T15:46:07;15.90;36.50
18365;DHT22;9309;52.126;11.616;2023-05-16T15:48:34;15.70;36.50